Time;durP1;ratioP1;P1;durP2;ratioP2;P2;SDS_P1;SDS_P2;PMS_P1;PMS_P2;Temp;Humidity;BMP_temperature;BMP_pressure;BME280_temperature;BME280_humidity;BME280_pressure;Samples;Min_cycle;Max_cycle;Signal;HPM_P1;HPM_P2
2022/05/15 00:02:06;;;;;;;1.80;0.88;;;25.00;43.40;;;;;;5003304;28;21057;-56
2022/05/15 00:04:32;;;;;;;1.48;0.70;;;25.00;43.40;;;;;;5005119;28;20221;-57
2022/05/15 00:06:57;;;;;;;1.65;0.90;;;25.00;43.40;;;;;;5004308;28;20041;-54
2022/05/15 00:09:23;;;;;;;1.85;0.93;;;25.00;43.40;;;;;;5005888;28;20033;-54
2022/05/15 00:11:49;;;;;;;2.17;0.90;;;25.00;43.40;;;;;;5006154;28;20033;-54
2022/05/15 00:14:15;;;;;;;1.50;0.80;;;25.00;43.40;;;;;;5004607;28;20128;-55
2022/05/15 00:16:41;;;;;;;1.95;0.88;;;25.00;43.50;;;;;;5005178;28;20037;-56
2022/05/15 00:19:07;;;;;;;1.85;0.80;;;25.00;43.40;;;;;;5005601;28;20030;-54
2022/05/15 00:21:33;;;;;;;2.30;0.88;;;25.00;43.40;;;;;;5004540;28;20547;-54
2022/05/15 00:23:59;;;;;;;2.55;0.95;;;25.00;43.40;;;;;;5004036;28;20097;-53
2022/05/15 00:26:25;;;;;;;1.45;0.73;;;25.00;43.40;;;;;;5005201;28;20117;-54
2022/05/15 00:28:52;;;;;;;1.67;0.80;;;25.00;43.40;;;;;;5005111;28;20040;-54
2022/05/15 00:31:18;;;;;;;1.90;0.90;;;25.00;43.40;;;;;;5005354;28;20030;-56
2022/05/15 00:33:44;;;;;;;1.42;0.82;;;25.00;43.40;;;;;;5003448;28;20025;-55
2022/05/15 00:36:11;;;;;;;1.45;0.70;;;25.00;43.40;;;;;;5003124;28;20065;-55
2022/05/15 00:38:37;;;;;;;2.00;0.90;;;25.00;43.50;;;;;;5005558;28;20026;-55
2022/05/15 00:41:03;;;;;;;1.85;0.88;;;25.00;43.40;;;;;;5005567;28;20533;-55
2022/05/15 00:43:40;;;;;;;1.48;0.80;;;25.00;43.60;;;;;;5005502;28;20054;-54
2022/05/15 00:46:09;;;;;;;1.88;0.70;;;25.00;43.40;;;;;;5005249;28;20030;-53
2022/05/15 00:48:34;;;;;;;1.55;0.88;;;25.00;43.40;;;;;;5004585;28;20056;-56
2022/05/15 00:51:05;;;;;;;1.85;0.90;;;25.00;43.40;;;;;;5004871;28;20030;-56
2022/05/15 00:53:34;;;;;;;2.83;0.93;;;25.00;43.50;;;;;;5005502;28;20032;-55
2022/05/15 00:56:01;;;;;;;1.85;0.90;;;25.00;43.40;;;;;;5003754;28;20033;-55
2022/05/15 00:58:33;;;;;;;1.58;0.82;;;25.00;43.40;;;;;;5004971;28;20465;-54
2022/05/15 01:00:59;;;;;;;1.58;0.70;;;25.00;43.50;;;;;;5003645;28;20053;-53
2022/05/15 01:03:25;;;;;;;2.05;0.75;;;25.00;44.10;;;;;;5000809;28;20025;-55
2022/05/15 01:05:54;;;;;;;1.30;0.73;;;25.00;43.50;;;;;;5004945;28;20026;-55
2022/05/15 01:08:21;;;;;;;1.85;0.80;;;25.00;43.40;;;;;;5004754;28;20029;-54
2022/05/15 01:10:53;;;;;;;1.23;0.65;;;25.00;43.50;;;;;;5005020;28;20033;-54
2022/05/15 01:13:22;;;;;;;1.65;0.60;;;25.00;43.50;;;;;;5004598;28;20125;-54
2022/05/15 01:15:48;;;;;;;1.98;0.70;;;25.00;43.60;;;;;;5002882;28;20034;-55
2022/05/15 01:18:21;;;;;;;1.45;0.70;;;25.00;43.70;;;;;;5002703;28;20635;-55
2022/05/15 01:20:47;;;;;;;1.60;0.80;;;25.00;43.60;;;;;;5004876;28;20042;-55
2022/05/15 01:23:13;;;;;;;1.85;0.73;;;25.00;43.60;;;;;;5004805;28;20539;-55
2022/05/15 01:25:39;;;;;;;2.10;0.88;;;25.00;43.60;;;;;;5005014;28;20072;-53
2022/05/15 01:28:07;;;;;;;2.03;0.77;;;25.00;43.60;;;;;;5004469;28;20029;-53
2022/05/15 01:30:34;;;;;;;1.98;1.00;;;25.00;43.60;;;;;;5004924;28;20025;-56
2022/05/15 01:33:00;;;;;;;1.92;0.88;;;25.00;43.60;;;;;;5004841;28;20390;-55
2022/05/15 01:35:26;;;;;;;1.95;0.90;;;25.00;43.60;;;;;;5004314;28;20678;-54
2022/05/15 01:37:52;;;;;;;1.33;0.80;;;25.00;43.60;;;;;;5004615;28;20486;-55
2022/05/15 01:40:18;;;;;;;1.23;0.65;;;25.00;43.70;;;;;;5004566;28;20068;-54
2022/05/15 01:42:44;;;;;;;2.28;0.70;;;25.00;43.70;;;;;;5004662;28;20014;-55
2022/05/15 01:45:12;;;;;;;2.28;1.15;;;25.00;43.70;;;;;;5004965;28;20538;-55
2022/05/15 01:47:38;;;;;;;1.80;0.80;;;25.00;43.70;;;;;;5004119;28;20084;-55
2022/05/15 01:50:05;;;;;;;2.03;0.90;;;25.00;43.70;;;;;;5003349;28;20052;-56
2022/05/15 01:52:31;;;;;;;3.03;0.93;;;25.00;43.70;;;;;;5002143;28;20644;-55
2022/05/15 01:54:56;;;;;;;1.75;0.85;;;25.00;43.60;;;;;;5003098;28;20034;-54
2022/05/15 01:57:22;;;;;;;1.42;0.75;;;25.00;43.70;;;;;;5003254;28;20033;-55
2022/05/15 01:59:48;;;;;;;1.48;0.70;;;25.00;43.70;;;;;;5003274;28;20025;-54
2022/05/15 02:02:14;;;;;;;3.90;1.00;;;25.00;43.80;;;;;;5002580;28;20018;-54
2022/05/15 02:04:40;;;;;;;1.27;0.70;;;25.00;43.80;;;;;;5003400;28;20037;-55
2022/05/15 02:07:06;;;;;;;1.52;0.55;;;25.00;43.80;;;;;;5003984;28;20441;-54
2022/05/15 02:09:32;;;;;;;1.98;0.90;;;25.00;43.80;;;;;;5004103;28;20084;-54
2022/05/15 02:11:58;;;;;;;2.00;0.90;;;25.00;43.80;;;;;;5004257;28;20034;-54
2022/05/15 02:14:24;;;;;;;1.88;0.90;;;25.00;43.70;;;;;;5004274;28;20433;-54
2022/05/15 02:16:50;;;;;;;1.75;0.80;;;25.00;43.70;;;;;;5003608;28;20018;-54
2022/05/15 02:19:16;;;;;;;1.65;0.80;;;24.90;43.80;;;;;;5003955;28;20557;-54
2022/05/15 02:21:44;;;;;;;1.83;0.75;;;24.90;43.80;;;;;;5003695;28;20076;-55
2022/05/15 02:24:10;;;;;;;1.23;0.60;;;24.90;43.80;;;;;;5003823;28;20025;-55
2022/05/15 02:26:37;;;;;;;1.83;0.90;;;24.90;43.80;;;;;;5003484;28;20072;-55
2022/05/15 02:29:04;;;;;;;2.05;0.80;;;24.90;43.80;;;;;;5002389;28;20033;-55
2022/05/15 02:31:30;;;;;;;1.90;0.75;;;24.90;43.80;;;;;;5004076;28;20128;-55
2022/05/15 02:33:56;;;;;;;1.17;0.60;;;24.90;43.80;;;;;;5004190;28;20026;-55
2022/05/15 02:36:21;;;;;;;1.60;0.70;;;25.00;43.80;;;;;;5003656;28;20092;-55
2022/05/15 02:38:47;;;;;;;1.75;0.77;;;25.00;43.80;;;;;;5002740;28;20037;-54
2022/05/15 02:41:13;;;;;;;2.20;0.98;;;25.00;43.80;;;;;;5003993;28;20041;-53
2022/05/15 02:43:39;;;;;;;1.95;1.17;;;24.90;43.80;;;;;;5004349;28;20029;-55
2022/05/15 02:46:04;;;;;;;2.90;1.08;;;24.90;43.80;;;;;;5002352;28;20022;-55
2022/05/15 02:51:14;;;;;;;1.02;0.55;;;24.90;43.80;;;;;;5003765;28;20132;-55
2022/05/15 02:53:43;;;;;;;1.73;0.90;;;25.00;43.80;;;;;;5003205;28;20457;-56
2022/05/15 02:56:15;;;;;;;1.77;0.80;;;24.90;43.80;;;;;;5003641;28;20125;-54
2022/05/15 02:58:41;;;;;;;1.38;0.70;;;24.90;43.80;;;;;;5003127;28;20036;-55
2022/05/15 03:01:06;;;;;;;1.42;0.77;;;24.90;43.80;;;;;;5001524;28;20030;-55
2022/05/15 03:03:32;;;;;;;2.05;0.98;;;24.90;43.80;;;;;;5003210;28;20402;-56
2022/05/15 03:05:58;;;;;;;1.98;0.70;;;24.90;43.80;;;;;;5001724;28;20042;-54
2022/05/15 03:08:25;;;;;;;2.33;0.80;;;24.90;43.80;;;;;;5003427;28;20091;-55
2022/05/15 03:10:51;;;;;;;2.05;0.90;;;24.90;43.80;;;;;;5003119;28;20025;-55
2022/05/15 03:13:16;;;;;;;2.13;0.93;;;24.90;43.80;;;;;;5003550;28;20065;-55
2022/05/15 03:15:42;;;;;;;1.17;0.70;;;24.90;43.70;;;;;;5006465;28;20064;-55
2022/05/15 03:18:08;;;;;;;1.95;0.90;;;24.90;43.80;;;;;;5006843;28;20030;-55
2022/05/15 03:20:34;;;;;;;2.20;0.93;;;24.90;43.80;;;;;;5006683;28;20032;-54
2022/05/15 03:23:00;;;;;;;1.75;0.80;;;24.90;43.70;;;;;;5007145;28;20449;-55
2022/05/15 03:25:27;;;;;;;1.63;0.63;;;24.90;43.80;;;;;;5006705;28;20026;-54
2022/05/15 03:27:56;;;;;;;1.02;0.60;;;24.90;43.80;;;;;;5006538;28;20022;-56
2022/05/15 03:30:22;;;;;;;1.10;0.68;;;24.90;43.80;;;;;;5007166;28;20030;-55
2022/05/15 03:32:48;;;;;;;1.92;0.70;;;24.90;43.80;;;;;;5006521;28;20061;-54
2022/05/15 03:35:14;;;;;;;1.83;0.93;;;24.90;43.80;;;;;;5006468;28;20057;-55
2022/05/15 03:37:41;;;;;;;1.90;0.80;;;24.90;43.80;;;;;;5006274;28;20031;-54
2022/05/15 03:40:10;;;;;;;1.23;0.75;;;24.90;43.90;;;;;;5007017;28;20141;-55
2022/05/15 03:42:36;;;;;;;1.27;0.60;;;24.90;43.80;;;;;;5006731;28;20045;-55
2022/05/15 03:45:03;;;;;;;1.98;0.82;;;24.90;43.80;;;;;;5005494;28;20061;-55
2022/05/15 03:47:29;;;;;;;1.95;0.85;;;24.90;43.80;;;;;;5006227;28;20703;-55
2022/05/15 03:50:00;;;;;;;1.38;0.80;;;24.90;43.80;;;;;;5006160;28;20030;-55
2022/05/15 03:52:26;;;;;;;1.20;0.70;;;24.90;43.80;;;;;;5007219;28;20085;-56
2022/05/15 03:54:52;;;;;;;2.45;0.88;;;24.90;43.80;;;;;;5006318;28;20114;-54
2022/05/15 03:57:19;;;;;;;1.60;0.80;;;24.90;43.80;;;;;;5006357;28;20064;-56
2022/05/15 03:59:45;;;;;;;1.85;0.80;;;24.90;43.80;;;;;;5006248;28;20112;-54
2022/05/15 04:02:12;;;;;;;2.13;0.70;;;24.90;43.80;;;;;;5020821;28;20029;-55
2022/05/15 04:04:39;;;;;;;1.63;0.82;;;24.90;43.80;;;;;;5005821;28;20617;-56
2022/05/15 04:07:05;;;;;;;1.95;0.80;;;24.90;43.80;;;;;;5005881;28;20092;-55
2022/05/15 04:09:32;;;;;;;1.63;0.70;;;24.90;43.80;;;;;;5006054;28;20385;-56
2022/05/15 04:11:57;;;;;;;1.13;0.55;;;24.90;43.80;;;;;;5006222;28;20033;-54
2022/05/15 04:14:23;;;;;;;1.15;0.63;;;24.90;43.80;;;;;;5005266;28;20018;-55
2022/05/15 04:16:49;;;;;;;1.27;0.80;;;24.90;43.80;;;;;;5005696;28;20796;-55
2022/05/15 04:19:15;;;;;;;1.38;0.57;;;24.90;43.80;;;;;;5006227;28;20025;-54
2022/05/15 04:21:40;;;;;;;1.08;0.50;;;24.90;43.80;;;;;;5005826;28;20026;-56
2022/05/15 04:24:08;;;;;;;1.52;0.90;;;24.90;43.80;;;;;;5004618;28;20045;-55
2022/05/15 04:26:35;;;;;;;1.95;0.75;;;24.90;43.80;;;;;;5005498;28;20025;-54
2022/05/15 04:29:02;;;;;;;2.17;0.80;;;24.90;43.80;;;;;;5005656;28;20030;-54
2022/05/15 04:31:28;;;;;;;1.95;1.00;;;24.90;43.80;;;;;;5005428;28;20424;-55
2022/05/15 04:33:54;;;;;;;2.70;0.82;;;24.90;43.80;;;;;;5005419;28;20102;-54
2022/05/15 04:36:19;;;;;;;1.58;0.75;;;24.90;44.60;;;;;;5005426;28;20542;-53
2022/05/15 04:38:45;;;;;;;1.55;0.70;;;24.90;43.80;;;;;;5005283;28;20036;-54
2022/05/15 04:41:11;;;;;;;1.83;0.77;;;24.90;43.80;;;;;;5005453;28;20445;-55
2022/05/15 04:43:37;;;;;;;1.27;0.70;;;24.90;43.80;;;;;;5004090;28;20033;-55
2022/05/15 04:46:07;;;;;;;1.85;0.68;;;24.90;43.80;;;;;;5004902;28;20030;-53
2022/05/15 04:48:33;;;;;;;1.58;0.90;;;24.90;43.80;;;;;;5003564;28;20486;-55
2022/05/15 04:51:00;;;;;;;1.65;1.00;;;24.90;43.80;;;;;;5005129;28;20402;-55
2022/05/15 04:53:27;;;;;;;1.25;0.73;;;24.90;43.80;;;;;;5004525;28;20057;-54
2022/05/15 04:55:53;;;;;;;1.63;0.70;;;24.80;43.80;;;;;;5004396;28;20030;-55
2022/05/15 04:58:19;;;;;;;1.42;0.70;;;24.90;43.80;;;;;;5018954;28;20042;-54
2022/05/15 05:00:45;;;;;;;1.13;0.65;;;24.90;43.90;;;;;;5003648;28;20022;-55
2022/05/15 05:03:11;;;;;;;1.20;0.50;;;24.90;43.90;;;;;;5003499;28;20025;-54
2022/05/15 05:05:37;;;;;;;2.20;0.75;;;24.90;43.90;;;;;;5004593;28;20502;-55
2022/05/15 05:08:05;;;;;;;2.03;0.77;;;24.90;43.90;;;;;;5004527;28;20064;-53
2022/05/15 05:10:31;;;;;;;1.50;0.70;;;24.90;44.00;;;;;;5004861;28;20360;-54
2022/05/15 05:12:57;;;;;;;1.38;0.65;;;24.90;44.10;;;;;;5004258;28;20029;-53
2022/05/15 05:15:23;;;;;;;2.60;1.00;;;24.90;44.10;;;;;;5004101;28;20034;-55
2022/05/15 05:17:48;;;;;;;2.38;0.77;;;24.90;44.20;;;;;;5004226;28;20041;-54
2022/05/15 05:20:14;;;;;;;1.08;0.63;;;24.90;44.20;;;;;;5003837;28;20183;-54
2022/05/15 05:22:41;;;;;;;1.67;0.68;;;24.90;44.20;;;;;;5002572;28;20088;-55
2022/05/15 05:25:07;;;;;;;1.67;0.68;;;24.90;44.20;;;;;;5004544;28;20045;-54
2022/05/15 05:27:34;;;;;;;2.38;0.98;;;24.90;45.30;;;;;;5002742;28;20025;-55
2022/05/15 05:29:59;;;;;;;4.85;1.10;;;24.90;46.10;;;;;;5004212;28;20018;-52
2022/05/15 05:32:25;;;;;;;1.67;0.70;;;24.90;45.20;;;;;;5004591;28;20512;-55
2022/05/15 05:34:51;;;;;;;1.77;0.80;;;24.90;45.00;;;;;;5003760;28;20520;-54
2022/05/15 05:37:17;;;;;;;3.65;0.90;;;24.90;45.10;;;;;;5003351;28;20018;-55
2022/05/15 05:39:44;;;;;;;3.17;0.98;;;24.90;45.90;;;;;;5018473;28;20014;-55
2022/05/15 05:42:10;;;;;;;2.67;0.80;;;25.00;46.10;;;;;;5003458;28;20025;-53
2022/05/15 05:44:36;;;;;;;6.78;1.63;;;24.90;46.00;;;;;;5003716;28;20030;-55
2022/05/15 05:47:02;;;;;;;10.93;2.40;;;25.00;46.50;;;;;;5003107;28;20056;-53
2022/05/15 05:49:28;;;;;;;8.43;1.65;;;25.00;47.00;;;;;;5003317;28;20022;-55
2022/05/15 05:51:54;;;;;;;5.03;1.50;;;25.00;46.60;;;;;;5003576;28;20048;-54
2022/05/15 05:54:20;;;;;;;3.50;1.23;;;25.00;46.30;;;;;;5002941;28;20828;-53
2022/05/15 05:56:45;;;;;;;2.80;0.80;;;25.00;46.10;;;;;;5002850;28;20146;-56
2022/05/15 05:59:11;;;;;;;2.72;1.13;;;25.00;45.90;;;;;;5003323;28;20064;-54
2022/05/15 06:01:37;;;;;;;2.22;1.00;;;25.00;45.80;;;;;;5002997;28;20030;-53
2022/05/15 06:06:47;;;;;;;2.45;1.05;;;25.00;45.70;;;;;;5003541;28;20719;-54
2022/05/15 06:09:12;;;;;;;3.28;1.30;;;25.00;45.70;;;;;;5003667;28;20038;-56
2022/05/15 06:11:38;;;;;;;2.53;0.80;;;25.00;45.70;;;;;;5003794;28;20160;-56
2022/05/15 06:14:04;;;;;;;3.45;1.10;;;25.00;45.60;;;;;;5004070;28;20033;-55
2022/05/15 06:16:32;;;;;;;2.10;0.90;;;25.10;45.70;;;;;;5003187;28;20038;-55
2022/05/15 06:18:59;;;;;;;2.30;0.90;;;25.10;45.80;;;;;;5002781;28;20117;-53
2022/05/15 06:21:25;;;;;;;2.60;0.80;;;25.10;45.80;;;;;;5000670;28;20018;-55
2022/05/15 06:23:50;;;;;;;2.05;0.70;;;25.10;45.80;;;;;;5002511;28;20033;-54
2022/05/15 06:26:16;;;;;;;3.45;1.20;;;25.10;45.70;;;;;;5002964;28;20690;-54
2022/05/15 06:28:42;;;;;;;1.48;0.60;;;25.10;45.60;;;;;;5002777;28;20030;-53
2022/05/15 06:31:08;;;;;;;2.63;0.88;;;25.10;45.50;;;;;;5003527;28;20116;-55
2022/05/15 06:33:33;;;;;;;2.33;0.85;;;25.10;45.30;;;;;;5003091;28;20030;-53
2022/05/15 06:35:59;;;;;;;1.98;0.80;;;25.10;45.20;;;;;;5003015;28;20074;-52
2022/05/15 06:38:26;;;;;;;2.58;1.25;;;25.10;45.20;;;;;;5002731;28;20033;-54
2022/05/15 06:40:52;;;;;;;1.65;0.73;;;25.20;45.30;;;;;;5003480;28;20034;-53
2022/05/15 06:43:18;;;;;;;1.88;0.80;;;25.10;45.30;;;;;;5004417;28;20030;-52
2022/05/15 06:45:43;;;;;;;2.40;1.00;;;25.20;45.40;;;;;;5003092;28;20037;-50
2022/05/15 06:48:09;;;;;;;2.38;0.85;;;25.20;45.40;;;;;;5000029;28;20383;-50
2022/05/15 06:50:35;;;;;;;3.45;1.42;;;25.10;45.80;;;;;;5007657;28;20037;-49
2022/05/15 06:53:02;;;;;;;3.70;1.35;;;25.20;45.90;;;;;;5007200;28;20096;-50
2022/05/15 06:55:28;;;;;;;1.90;1.00;;;25.20;46.00;;;;;;5008211;28;20040;-49
2022/05/15 06:57:54;;;;;;;3.22;1.55;;;25.20;46.00;;;;;;5007704;28;20505;-49
2022/05/15 07:00:25;;;;;;;3.35;1.30;;;25.20;45.70;;;;;;5007784;28;20030;-48
2022/05/15 07:02:51;;;;;;;3.30;1.30;;;25.20;45.40;;;;;;5007212;28;20033;-48
2022/05/15 07:05:25;;;;;;;3.20;1.40;;;25.20;45.30;;;;;;4995341;28;20114;-49
2022/05/15 07:07:54;;;;;;;3.25;1.55;;;25.20;45.00;;;;;;4988249;28;20034;-47
2022/05/15 07:10:21;;;;;;;2.63;1.40;;;25.20;44.90;;;;;;4987645;28;20117;-48
2022/05/15 07:12:46;;;;;;;1.95;1.05;;;25.20;45.50;;;;;;4989488;28;20049;-49
2022/05/15 07:15:12;;;;;;;2.97;1.30;;;25.20;44.90;;;;;;5006892;28;20486;-49
2022/05/15 07:17:38;;;;;;;3.15;1.40;;;25.20;44.60;;;;;;5006554;28;20588;-48
2022/05/15 07:20:05;;;;;;;2.63;1.40;;;25.20;44.90;;;;;;5003116;28;20088;-50
2022/05/15 07:22:31;;;;;;;2.55;1.27;;;25.20;44.80;;;;;;5006787;28;20030;-49
2022/05/15 07:24:57;;;;;;;2.33;0.95;;;25.20;44.70;;;;;;5006267;28;20692;-50
2022/05/15 07:27:22;;;;;;;3.15;1.40;;;25.20;44.60;;;;;;5003640;28;20042;-50
2022/05/15 07:29:48;;;;;;;2.67;1.17;;;25.30;44.70;;;;;;5003213;28;20040;-53
2022/05/15 07:32:14;;;;;;;3.08;1.33;;;25.30;44.50;;;;;;5006490;28;20021;-50
2022/05/15 07:34:40;;;;;;;2.55;1.25;;;25.30;44.40;;;;;;5005634;28;20121;-52
2022/05/15 07:37:07;;;;;;;2.63;1.20;;;25.30;44.30;;;;;;5005763;28;20018;-52
2022/05/15 07:39:33;;;;;;;2.30;1.15;;;25.30;44.10;;;;;;5006114;28;20021;-52
2022/05/15 07:41:58;;;;;;;2.70;1.20;;;25.30;44.10;;;;;;5003619;28;20022;-51
2022/05/15 07:44:24;;;;;;;2.95;1.20;;;25.30;44.00;;;;;;5005824;28;20018;-52
2022/05/15 07:46:50;;;;;;;2.20;1.33;;;25.30;43.90;;;;;;5021191;28;20026;-52
2022/05/15 07:49:16;;;;;;;2.05;1.00;;;25.30;43.90;;;;;;5005115;28;20245;-52
2022/05/15 07:51:45;;;;;;;2.22;1.10;;;25.30;43.80;;;;;;5006446;28;20030;-52
2022/05/15 07:54:13;;;;;;;2.47;1.25;;;25.30;43.80;;;;;;4996181;28;20076;-51
2022/05/15 07:56:39;;;;;;;3.42;1.55;;;25.30;43.80;;;;;;4999422;28;20459;-51
2022/05/15 07:59:05;;;;;;;3.10;1.63;;;25.30;44.10;;;;;;5003710;28;20109;-50
2022/05/15 08:01:30;;;;;;;2.78;1.20;;;25.30;44.20;;;;;;5003669;28;20485;-51
2022/05/15 08:03:56;;;;;;;3.00;1.55;;;25.30;44.30;;;;;;5002087;28;20041;-50
2022/05/15 08:09:08;;;;;;;5.38;1.77;;;25.30;44.20;;;;;;5002793;28;20068;-51
2022/05/15 08:11:36;;;;;;;4.28;1.80;;;25.30;44.20;;;;;;5004496;28;20429;-50
2022/05/15 08:14:04;;;;;;;4.40;1.90;;;25.30;44.30;;;;;;4996753;28;20025;-48
2022/05/15 08:16:31;;;;;;;5.82;2.15;;;25.30;44.20;;;;;;5000830;28;20030;-48
2022/05/15 08:24:27;;;;;;;5.80;2.88;;;25.30;44.30;;;;;;5003209;28;20084;-49
2022/05/15 08:26:53;;;;;;;5.93;3.13;;;25.30;44.30;;;;;;5003130;28;20101;-48
2022/05/15 08:29:19;;;;;;;6.82;2.78;;;25.30;44.30;;;;;;5003934;28;20026;-48
2022/05/15 08:31:45;;;;;;;8.18;3.42;;;25.30;44.30;;;;;;5004458;28;20028;-48
2022/05/15 08:34:12;;;;;;;5.45;2.97;;;25.30;43.90;;;;;;5003845;28;20189;-50
2022/05/15 08:36:41;;;;;;;5.68;3.03;;;25.40;44.10;;;;;;5003721;28;20064;-50
2022/05/15 08:39:08;;;;;;;5.82;2.75;;;25.40;44.00;;;;;;4999841;28;20030;-50
2022/05/15 08:41:45;;;;;;;8.82;3.35;;;25.40;44.00;;;;;;5003657;28;20038;-49
2022/05/15 08:44:21;;;;;;;6.43;2.80;;;25.40;44.10;;;;;;5004743;28;20037;-49
2022/05/15 08:47:09;;;;;;;6.53;2.97;;;25.40;44.10;;;;;;5005643;28;20025;-48
2022/05/15 08:49:42;;;;;;;6.03;2.80;;;25.40;44.20;;;;;;5004389;28;20557;-50
2022/05/15 08:52:09;;;;;;;7.85;3.13;;;25.40;44.10;;;;;;5005699;28;20112;-49
2022/05/15 08:54:40;;;;;;;6.30;3.15;;;25.40;43.80;;;;;;5005806;28;20454;-50
2022/05/15 08:57:15;;;;;;;6.82;2.85;;;25.40;43.70;;;;;;5005277;28;20030;-51
2022/05/15 08:59:51;;;;;;;6.47;3.25;;;25.40;43.60;;;;;;5005414;28;20648;-50
2022/05/15 09:02:17;;;;;;;6.32;3.45;;;25.40;43.50;;;;;;4992871;28;20037;-51
2022/05/15 09:04:42;;;;;;;8.50;3.90;;;25.40;43.40;;;;;;5004450;28;20618;-51
2022/05/15 09:07:20;;;;;;;7.93;3.70;;;25.50;43.50;;;;;;5001394;28;20022;-50
2022/05/15 09:10:01;;;;;;;6.13;3.03;;;25.40;43.50;;;;;;5004536;28;20600;-51
2022/05/15 09:12:27;;;;;;;8.00;3.50;;;25.40;43.50;;;;;;5005017;28;20026;-51
2022/05/15 09:14:59;;;;;;;7.40;3.58;;;25.40;43.40;;;;;;5004249;28;20041;-52
2022/05/15 09:17:42;;;;;;;4.93;2.65;;;25.50;43.40;;;;;;5003306;28;20037;-52
2022/05/15 09:20:13;;;;;;;6.55;3.28;;;25.50;43.70;;;;;;5004085;28;20067;-52
2022/05/15 09:22:45;;;;;;;7.03;3.60;;;25.50;44.00;;;;;;5002383;28;20030;-53
2022/05/15 09:25:20;;;;;;;7.60;3.63;;;25.50;44.10;;;;;;5004790;28;20041;-53
2022/05/15 09:28:01;;;;;;;6.95;3.42;;;25.50;44.10;;;;;;5004659;28;20040;-49
2022/05/15 09:30:50;;;;;;;5.72;2.75;;;25.50;44.00;;;;;;5001771;28;20629;-52
2022/05/15 09:33:38;;;;;;;8.13;3.58;;;25.50;43.90;;;;;;4996209;28;20038;-53
2022/05/15 09:36:28;;;;;;;6.28;3.00;;;25.50;43.90;;;;;;5000074;28;20779;-51
2022/05/15 09:39:24;;;;;;;6.03;2.95;;;25.50;43.40;;;;;;4993216;28;20105;-53
2022/05/15 09:44:46;;;;;;;7.88;3.22;;;25.60;43.30;;;;;;5000607;28;20064;-50
2022/05/15 09:47:50;;;;;;;5.00;3.10;;;25.50;43.30;;;;;;5004212;28;20104;-50
2022/05/15 09:50:41;;;;;;;5.32;2.47;;;25.50;43.30;;;;;;5000859;28;20129;-51
2022/05/15 09:53:22;;;;;;;7.30;3.17;;;25.50;43.30;;;;;;5001460;28;20032;-54
2022/05/15 09:56:02;;;;;;;4.85;2.72;;;25.50;43.10;;;;;;5002549;28;20128;-52
2022/05/15 09:58:45;;;;;;;5.50;3.05;;;25.50;43.20;;;;;;5000728;28;20040;-53
2022/05/15 10:01:13;;;;;;;;;;;25.50;43.40;;;;;;5002031;28;20038;-50
2022/05/15 10:03:39;;;;;;;6.07;2.92;;;25.50;43.40;;;;;;5003504;28;19920;-55
2022/05/15 10:06:08;;;;;;;5.75;2.75;;;25.50;43.40;;;;;;5003020;28;20029;-55
2022/05/15 10:08:35;;;;;;;7.00;3.03;;;25.60;43.50;;;;;;5002801;28;20079;-54
2022/05/15 10:11:16;;;;;;;4.97;2.50;;;25.60;43.20;;;;;;5003013;28;20080;-53
2022/05/15 10:13:44;;;;;;;5.22;2.35;;;25.50;43.20;;;;;;5002936;28;20713;-54
2022/05/15 10:16:33;;;;;;;6.97;2.65;;;25.50;43.30;;;;;;5001965;28;20568;-54
2022/05/15 10:19:08;;;;;;;6.07;2.85;;;25.60;43.20;;;;;;5003139;28;20112;-53
2022/05/15 10:21:57;;;;;;;6.22;3.15;;;25.60;43.30;;;;;;4999924;28;20030;-54
2022/05/15 10:24:29;;;;;;;7.10;3.08;;;25.60;43.40;;;;;;5005071;28;20057;-55
2022/05/15 10:27:10;;;;;;;5.45;2.72;;;25.60;43.40;;;;;;4999232;28;20037;-49
2022/05/15 10:29:39;;;;;;;5.57;2.40;;;25.60;43.40;;;;;;4994446;28;20029;-55
2022/05/15 10:32:17;;;;;;;6.40;2.92;;;25.60;43.20;;;;;;5004364;28;20033;-54
2022/05/15 10:34:43;;;;;;;5.43;2.85;;;25.60;43.10;;;;;;4999897;28;20037;-55
2022/05/15 10:37:28;;;;;;;7.07;2.42;;;25.60;43.00;;;;;;5004216;28;20656;-55
2022/05/15 10:40:15;;;;;;;4.68;2.35;;;25.60;43.10;;;;;;5007417;28;20030;-53
2022/05/15 10:42:44;;;;;;;5.45;2.53;;;25.60;43.10;;;;;;5007652;28;20036;-54
2022/05/15 10:45:28;;;;;;;5.70;2.42;;;25.60;43.10;;;;;;5000122;28;20692;-55
2022/05/15 10:48:41;;;;;;;6.20;2.72;;;25.60;43.10;;;;;;5006963;28;20034;-52
2022/05/15 10:51:32;;;;;;;7.43;2.70;;;25.60;43.40;;;;;;4994440;28;20570;-49
2022/05/15 10:59:50;;;;;;;5.78;2.40;;;25.60;43.30;;;;;;4987185;28;20104;-50
2022/05/15 11:02:31;;;;;;;4.60;2.30;;;25.60;42.20;;;;;;4988577;28;20030;-51
2022/05/15 11:05:16;;;;;;;5.00;2.10;;;25.60;43.00;;;;;;4995683;28;20654;-47
2022/05/15 11:08:03;;;;;;;6.25;2.63;;;25.60;42.60;;;;;;4999889;28;20034;-50
2022/05/15 11:10:44;;;;;;;5.38;2.38;;;25.60;42.70;;;;;;5007111;28;20453;-50
2022/05/15 11:13:25;;;;;;;4.93;2.28;;;25.60;42.80;;;;;;5006742;28;20045;-50
2022/05/15 11:15:59;;;;;;;5.03;2.20;;;25.70;42.70;;;;;;5006353;28;20030;-51
2022/05/15 11:18:38;;;;;;;5.05;2.08;;;25.70;42.80;;;;;;5006501;28;20025;-50
2022/05/15 11:21:12;;;;;;;4.63;2.30;;;25.70;42.90;;;;;;5004445;28;20024;-53
2022/05/15 11:23:50;;;;;;;4.38;2.00;;;25.70;42.90;;;;;;5000598;28;20391;-52
2022/05/15 11:26:43;;;;;;;4.60;2.22;;;25.70;43.10;;;;;;5005537;28;20034;-51
2022/05/15 11:29:13;;;;;;;4.32;2.15;;;25.70;43.20;;;;;;5005319;28;20056;-53
2022/05/15 11:31:45;;;;;;;6.25;2.50;;;25.70;43.00;;;;;;5005114;28;20030;-53
2022/05/15 11:34:12;;;;;;;4.78;2.22;;;25.70;43.20;;;;;;5003741;28;20080;-52
2022/05/15 11:36:41;;;;;;;3.50;1.75;;;25.70;43.10;;;;;;5004863;28;20037;-53
2022/05/15 11:39:12;;;;;;;4.95;2.45;;;25.80;43.10;;;;;;5004845;28;20056;-54
2022/05/15 11:41:38;;;;;;;3.70;2.10;;;25.80;43.30;;;;;;5004936;28;20022;-53
2022/05/15 11:44:35;;;;;;;5.28;2.03;;;25.80;43.30;;;;;;5006023;28;20443;-53
2022/05/15 11:47:15;;;;;;;4.35;1.90;;;25.80;43.50;;;;;;5000439;28;20034;-53
2022/05/15 11:50:03;;;;;;;5.20;2.15;;;25.80;43.50;;;;;;5007108;28;20113;-53
2022/05/15 11:52:54;;;;;;;5.45;2.42;;;25.80;43.50;;;;;;5007468;28;20033;-52
2022/05/15 11:55:45;;;;;;;5.43;2.05;;;25.80;43.70;;;;;;5005676;28;20037;-52
2022/05/15 11:58:31;;;;;;;5.25;2.10;;;25.80;43.80;;;;;;5007078;28;20053;-52
2022/05/15 12:01:20;;;;;;;4.43;2.00;;;25.90;43.80;;;;;;5006924;28;20557;-54
2022/05/15 12:03:49;;;;;;;5.63;2.42;;;25.90;43.80;;;;;;5007104;28;20040;-54
2022/05/15 12:06:21;;;;;;;4.50;2.13;;;25.90;43.80;;;;;;5006464;28;20066;-54
2022/05/15 12:09:12;;;;;;;4.78;2.13;;;25.90;43.80;;;;;;5007083;28;20128;-52
2022/05/15 12:11:38;;;;;;;5.90;2.45;;;25.90;43.80;;;;;;5007172;28;20026;-53
2022/05/15 12:14:22;;;;;;;4.40;2.38;;;25.90;43.80;;;;;;5006910;28;20053;-54
2022/05/15 12:17:17;;;;;;;5.28;2.33;;;25.90;43.90;;;;;;5006526;28;20453;-54
2022/05/15 12:19:45;;;;;;;5.30;2.47;;;25.90;43.80;;;;;;5006638;28;20026;-54
2022/05/15 12:22:13;;;;;;;4.03;1.92;;;26.00;44.40;;;;;;5004696;28;20030;-53
2022/05/15 12:24:44;;;;;;;4.95;2.13;;;26.00;44.40;;;;;;4986950;28;20065;-53
2022/05/15 12:27:19;;;;;;;5.22;2.15;;;26.00;44.50;;;;;;4988485;28;20105;-52
2022/05/15 12:30:06;;;;;;;4.38;1.88;;;26.00;44.60;;;;;;4987180;28;20050;-53
2022/05/15 12:32:52;;;;;;;4.80;2.15;;;26.00;44.60;;;;;;4990171;28;20037;-52
2022/05/15 12:35:33;;;;;;;4.10;1.88;;;26.00;44.60;;;;;;5006456;28;20041;-53
2022/05/15 12:38:06;;;;;;;4.35;1.67;;;26.10;44.60;;;;;;5006320;28;20101;-54
2022/05/15 12:40:37;;;;;;;5.15;2.30;;;26.10;44.70;;;;;;5006131;28;20022;-53
2022/05/15 12:43:39;;;;;;;4.50;2.05;;;26.10;44.60;;;;;;5006035;28;20500;-53
2022/05/15 12:46:05;;;;;;;5.78;2.40;;;26.10;44.60;;;;;;5005266;28;20033;-53
2022/05/15 12:48:36;;;;;;;4.53;1.60;;;26.10;44.60;;;;;;5006133;28;20033;-53
2022/05/15 12:51:07;;;;;;;3.15;1.60;;;26.20;44.60;;;;;;5006015;28;20037;-53
2022/05/15 12:53:37;;;;;;;5.05;1.92;;;26.10;44.60;;;;;;5005976;28;20033;-52
2022/05/15 12:56:19;;;;;;;3.95;1.88;;;26.20;44.60;;;;;;5005782;28;20064;-54
2022/05/15 12:58:51;;;;;;;3.97;1.98;;;26.20;44.70;;;;;;5005914;28;20489;-53
2022/05/15 13:01:18;;;;;;;4.63;1.85;;;26.20;44.70;;;;;;5006074;28;20121;-54
2022/05/15 13:03:48;;;;;;;3.65;1.88;;;26.30;44.70;;;;;;5005781;28;20060;-53
2022/05/15 13:06:18;;;;;;;3.83;2.10;;;26.30;44.60;;;;;;5005450;28;20231;-53
2022/05/15 13:08:57;;;;;;;4.68;2.28;;;26.30;44.60;;;;;;5005795;28;20036;-53
2022/05/15 13:11:25;;;;;;;4.80;2.45;;;26.30;44.60;;;;;;5005914;28;20069;-53
2022/05/15 13:13:54;;;;;;;3.92;1.75;;;26.30;44.60;;;;;;5005734;28;20030;-52
2022/05/15 13:16:22;;;;;;;3.72;1.58;;;26.30;44.60;;;;;;5005285;28;20030;-52
2022/05/15 13:18:51;;;;;;;4.00;1.90;;;26.30;44.70;;;;;;5005601;28;20099;-54
2022/05/15 13:21:38;;;;;;;3.47;1.75;;;26.40;44.60;;;;;;5005660;28;20398;-53
2022/05/15 13:24:07;;;;;;;3.40;1.75;;;26.40;44.60;;;;;;4999352;28;20185;-53
2022/05/15 13:26:39;;;;;;;4.50;1.58;;;26.40;44.70;;;;;;5005064;28;20034;-54